sensor_id;sensor_type;location;lat;lon;timestamp;P1;durP1;ratioP1;P2;durP2;ratioP2
29422;SDS011;16399;51.686;8.684;2023-05-23T00:01:52;28.10;;;16.48;;
29422;SDS011;16399;51.686;8.684;2023-05-23T00:04:54;23.65;;;17.15;;
29422;SDS011;16399;51.686;8.684;2023-05-23T00:07:58;26.05;;;16.57;;
29422;SDS011;16399;51.686;8.684;2023-05-23T00:11:03;24.15;;;17.37;;
29422;SDS011;16399;51.686;8.684;2023-05-23T00:14:06;23.38;;;16.65;;
29422;SDS011;16399;51.686;8.684;2023-05-23T00:17:08;25.08;;;15.25;;
29422;SDS011;16399;51.686;8.684;2023-05-23T00:20:11;22.00;;;15.98;;
29422;SDS011;16399;51.686;8.684;2023-05-23T00:23:14;20.02;;;14.93;;
29422;SDS011;16399;51.686;8.684;2023-05-23T00:26:21;22.60;;;14.05;;
29422;SDS011;16399;51.686;8.684;2023-05-23T00:29:24;20.30;;;14.80;;
29422;SDS011;16399;51.686;8.684;2023-05-23T00:32:26;23.10;;;14.43;;
29422;SDS011;16399;51.686;8.684;2023-05-23T00:35:28;18.95;;;13.75;;
29422;SDS011;16399;51.686;8.684;2023-05-23T00:38:31;17.75;;;13.40;;
29422;SDS011;16399;51.686;8.684;2023-05-23T00:41:33;22.25;;;12.88;;
29422;SDS011;16399;51.686;8.684;2023-05-23T00:44:38;20.65;;;14.18;;
29422;SDS011;16399;51.686;8.684;2023-05-23T00:47:41;19.67;;;12.75;;
29422;SDS011;16399;51.686;8.684;2023-05-23T00:50:44;20.82;;;13.30;;
29422;SDS011;16399;51.686;8.684;2023-05-23T00:53:47;19.45;;;13.38;;
29422;SDS011;16399;51.686;8.684;2023-05-23T00:56:50;23.02;;;13.90;;
29422;SDS011;16399;51.686;8.684;2023-05-23T00:59:52;22.22;;;13.60;;
29422;SDS011;16399;51.686;8.684;2023-05-23T01:02:54;23.15;;;14.28;;
29422;SDS011;16399;51.686;8.684;2023-05-23T01:05:57;24.32;;;14.45;;
29422;SDS011;16399;51.686;8.684;2023-05-23T01:08:59;18.77;;;13.55;;
29422;SDS011;16399;51.686;8.684;2023-05-23T01:12:08;18.30;;;13.78;;
29422;SDS011;16399;51.686;8.684;2023-05-23T01:15:11;21.48;;;12.20;;
29422;SDS011;16399;51.686;8.684;2023-05-23T01:18:16;19.23;;;11.70;;
29422;SDS011;16399;51.686;8.684;2023-05-23T01:21:33;16.57;;;11.78;;
29422;SDS011;16399;51.686;8.684;2023-05-23T01:24:46;14.45;;;10.90;;
29422;SDS011;16399;51.686;8.684;2023-05-23T01:27:49;16.67;;;11.78;;
29422;SDS011;16399;51.686;8.684;2023-05-23T01:30:53;16.02;;;11.48;;
29422;SDS011;16399;51.686;8.684;2023-05-23T01:33:58;17.65;;;10.90;;
29422;SDS011;16399;51.686;8.684;2023-05-23T01:37:01;15.25;;;10.68;;
29422;SDS011;16399;51.686;8.684;2023-05-23T01:40:05;16.43;;;10.63;;
29422;SDS011;16399;51.686;8.684;2023-05-23T01:43:08;15.03;;;10.13;;
29422;SDS011;16399;51.686;8.684;2023-05-23T01:46:11;14.85;;;10.80;;
29422;SDS011;16399;51.686;8.684;2023-05-23T01:49:14;17.30;;;10.63;;
29422;SDS011;16399;51.686;8.684;2023-05-23T01:52:18;14.10;;;10.07;;
29422;SDS011;16399;51.686;8.684;2023-05-23T01:55:21;15.50;;;10.55;;
29422;SDS011;16399;51.686;8.684;2023-05-23T01:58:26;17.82;;;10.23;;
29422;SDS011;16399;51.686;8.684;2023-05-23T02:01:28;15.30;;;10.23;;
29422;SDS011;16399;51.686;8.684;2023-05-23T02:04:31;14.65;;;9.85;;
29422;SDS011;16399;51.686;8.684;2023-05-23T02:07:34;15.58;;;10.88;;
29422;SDS011;16399;51.686;8.684;2023-05-23T02:10:36;15.75;;;10.88;;
29422;SDS011;16399;51.686;8.684;2023-05-23T02:13:38;15.15;;;10.45;;
29422;SDS011;16399;51.686;8.684;2023-05-23T02:16:41;17.55;;;11.45;;
29422;SDS011;16399;51.686;8.684;2023-05-23T02:19:43;15.63;;;10.30;;
29422;SDS011;16399;51.686;8.684;2023-05-23T02:22:45;16.65;;;10.72;;
29422;SDS011;16399;51.686;8.684;2023-05-23T02:25:47;14.87;;;10.65;;
29422;SDS011;16399;51.686;8.684;2023-05-23T02:28:50;14.90;;;11.00;;
29422;SDS011;16399;51.686;8.684;2023-05-23T02:31:52;14.33;;;9.43;;
29422;SDS011;16399;51.686;8.684;2023-05-23T02:34:54;13.65;;;10.03;;
29422;SDS011;16399;51.686;8.684;2023-05-23T02:37:57;16.95;;;10.15;;
29422;SDS011;16399;51.686;8.684;2023-05-23T02:41:00;15.18;;;8.50;;
29422;SDS011;16399;51.686;8.684;2023-05-23T02:44:02;13.70;;;9.23;;
29422;SDS011;16399;51.686;8.684;2023-05-23T02:47:05;12.07;;;8.88;;
29422;SDS011;16399;51.686;8.684;2023-05-23T02:50:07;13.00;;;8.83;;
29422;SDS011;16399;51.686;8.684;2023-05-23T02:53:10;14.70;;;8.13;;
29422;SDS011;16399;51.686;8.684;2023-05-23T02:56:12;15.63;;;9.60;;
29422;SDS011;16399;51.686;8.684;2023-05-23T02:59:15;13.22;;;8.95;;
29422;SDS011;16399;51.686;8.684;2023-05-23T03:02:17;14.40;;;8.85;;
29422;SDS011;16399;51.686;8.684;2023-05-23T03:05:20;15.78;;;10.45;;
29422;SDS011;16399;51.686;8.684;2023-05-23T03:08:23;14.85;;;9.50;;
29422;SDS011;16399;51.686;8.684;2023-05-23T03:11:25;17.17;;;9.60;;
29422;SDS011;16399;51.686;8.684;2023-05-23T03:14:29;13.32;;;8.65;;
29422;SDS011;16399;51.686;8.684;2023-05-23T03:17:31;14.55;;;9.05;;
29422;SDS011;16399;51.686;8.684;2023-05-23T03:20:33;14.38;;;9.20;;
29422;SDS011;16399;51.686;8.684;2023-05-23T03:23:36;14.45;;;8.55;;
29422;SDS011;16399;51.686;8.684;2023-05-23T03:26:38;13.95;;;9.08;;
29422;SDS011;16399;51.686;8.684;2023-05-23T03:29:40;14.28;;;9.05;;
29422;SDS011;16399;51.686;8.684;2023-05-23T03:32:43;14.75;;;9.18;;
29422;SDS011;16399;51.686;8.684;2023-05-23T03:35:45;13.98;;;8.20;;
29422;SDS011;16399;51.686;8.684;2023-05-23T03:38:48;13.20;;;8.85;;
29422;SDS011;16399;51.686;8.684;2023-05-23T03:41:50;12.82;;;8.93;;
29422;SDS011;16399;51.686;8.684;2023-05-23T03:44:52;14.15;;;8.40;;
29422;SDS011;16399;51.686;8.684;2023-05-23T03:47:55;14.25;;;8.63;;
29422;SDS011;16399;51.686;8.684;2023-05-23T03:50:57;14.15;;;9.70;;
29422;SDS011;16399;51.686;8.684;2023-05-23T03:54:00;14.47;;;9.43;;
29422;SDS011;16399;51.686;8.684;2023-05-23T03:57:02;15.88;;;9.15;;
29422;SDS011;16399;51.686;8.684;2023-05-23T04:00:05;13.32;;;8.63;;
29422;SDS011;16399;51.686;8.684;2023-05-23T04:03:12;14.35;;;9.03;;
29422;SDS011;16399;51.686;8.684;2023-05-23T04:06:16;13.40;;;9.37;;
29422;SDS011;16399;51.686;8.684;2023-05-23T04:09:20;11.48;;;8.28;;
29422;SDS011;16399;51.686;8.684;2023-05-23T04:12:22;13.03;;;8.40;;
29422;SDS011;16399;51.686;8.684;2023-05-23T04:15:25;13.08;;;9.13;;
29422;SDS011;16399;51.686;8.684;2023-05-23T04:18:27;15.78;;;9.00;;
29422;SDS011;16399;51.686;8.684;2023-05-23T04:21:30;16.32;;;9.45;;
29422;SDS011;16399;51.686;8.684;2023-05-23T04:24:32;12.43;;;8.80;;
29422;SDS011;16399;51.686;8.684;2023-05-23T04:27:35;14.60;;;9.78;;
29422;SDS011;16399;51.686;8.684;2023-05-23T04:30:39;14.45;;;9.33;;
29422;SDS011;16399;51.686;8.684;2023-05-23T04:33:42;13.08;;;8.63;;
29422;SDS011;16399;51.686;8.684;2023-05-23T04:36:45;13.20;;;8.25;;
29422;SDS011;16399;51.686;8.684;2023-05-23T04:39:47;12.47;;;8.50;;
29422;SDS011;16399;51.686;8.684;2023-05-23T04:42:49;12.35;;;7.97;;
29422;SDS011;16399;51.686;8.684;2023-05-23T04:45:52;13.05;;;9.05;;
29422;SDS011;16399;51.686;8.684;2023-05-23T04:48:54;13.43;;;9.73;;
29422;SDS011;16399;51.686;8.684;2023-05-23T04:51:58;12.33;;;8.50;;
29422;SDS011;16399;51.686;8.684;2023-05-23T04:55:00;12.82;;;8.58;;
29422;SDS011;16399;51.686;8.684;2023-05-23T04:58:03;16.65;;;9.85;;
29422;SDS011;16399;51.686;8.684;2023-05-23T05:01:05;17.60;;;9.40;;
29422;SDS011;16399;51.686;8.684;2023-05-23T05:04:09;14.15;;;10.00;;
29422;SDS011;16399;51.686;8.684;2023-05-23T05:07:11;16.57;;;9.73;;
29422;SDS011;16399;51.686;8.684;2023-05-23T05:10:13;13.75;;;9.15;;
29422;SDS011;16399;51.686;8.684;2023-05-23T05:13:19;13.72;;;8.85;;
29422;SDS011;16399;51.686;8.684;2023-05-23T05:16:21;14.33;;;9.83;;
29422;SDS011;16399;51.686;8.684;2023-05-23T05:19:23;13.53;;;9.00;;
29422;SDS011;16399;51.686;8.684;2023-05-23T05:22:26;14.87;;;9.03;;
29422;SDS011;16399;51.686;8.684;2023-05-23T05:25:28;16.57;;;9.63;;
29422;SDS011;16399;51.686;8.684;2023-05-23T05:28:34;14.33;;;9.95;;
29422;SDS011;16399;51.686;8.684;2023-05-23T05:31:37;12.90;;;8.78;;
29422;SDS011;16399;51.686;8.684;2023-05-23T05:34:40;16.25;;;10.03;;
29422;SDS011;16399;51.686;8.684;2023-05-23T05:37:42;15.78;;;10.00;;
29422;SDS011;16399;51.686;8.684;2023-05-23T05:40:45;18.42;;;10.60;;
29422;SDS011;16399;51.686;8.684;2023-05-23T05:43:47;17.00;;;11.30;;
29422;SDS011;16399;51.686;8.684;2023-05-23T05:46:49;18.40;;;11.48;;
29422;SDS011;16399;51.686;8.684;2023-05-23T05:49:52;20.90;;;12.60;;
29422;SDS011;16399;51.686;8.684;2023-05-23T05:52:54;18.67;;;11.60;;
29422;SDS011;16399;51.686;8.684;2023-05-23T05:55:56;18.35;;;12.18;;
29422;SDS011;16399;51.686;8.684;2023-05-23T05:58:58;19.52;;;12.00;;
29422;SDS011;16399;51.686;8.684;2023-05-23T06:02:01;17.85;;;11.53;;
29422;SDS011;16399;51.686;8.684;2023-05-23T06:05:03;19.20;;;12.07;;
29422;SDS011;16399;51.686;8.684;2023-05-23T06:08:07;20.57;;;12.37;;
29422;SDS011;16399;51.686;8.684;2023-05-23T06:11:09;18.27;;;11.00;;
29422;SDS011;16399;51.686;8.684;2023-05-23T06:14:12;19.98;;;12.37;;
29422;SDS011;16399;51.686;8.684;2023-05-23T06:17:14;18.48;;;11.05;;
29422;SDS011;16399;51.686;8.684;2023-05-23T06:20:16;19.42;;;12.47;;
29422;SDS011;16399;51.686;8.684;2023-05-23T06:23:19;21.12;;;14.35;;
29422;SDS011;16399;51.686;8.684;2023-05-23T06:26:21;22.07;;;14.53;;
29422;SDS011;16399;51.686;8.684;2023-05-23T06:29:23;18.85;;;13.68;;
29422;SDS011;16399;51.686;8.684;2023-05-23T06:32:26;23.60;;;13.75;;
29422;SDS011;16399;51.686;8.684;2023-05-23T06:35:28;22.13;;;13.50;;
29422;SDS011;16399;51.686;8.684;2023-05-23T06:38:30;19.82;;;12.80;;
29422;SDS011;16399;51.686;8.684;2023-05-23T06:41:33;21.30;;;12.37;;
29422;SDS011;16399;51.686;8.684;2023-05-23T06:44:35;22.55;;;13.90;;
29422;SDS011;16399;51.686;8.684;2023-05-23T06:47:37;18.92;;;13.08;;
29422;SDS011;16399;51.686;8.684;2023-05-23T06:50:41;17.93;;;12.27;;
29422;SDS011;16399;51.686;8.684;2023-05-23T06:53:44;17.10;;;11.30;;
29422;SDS011;16399;51.686;8.684;2023-05-23T06:56:46;16.35;;;11.43;;
29422;SDS011;16399;51.686;8.684;2023-05-23T06:59:48;16.73;;;10.93;;
29422;SDS011;16399;51.686;8.684;2023-05-23T07:02:50;19.35;;;11.83;;
29422;SDS011;16399;51.686;8.684;2023-05-23T07:05:53;19.57;;;11.18;;
29422;SDS011;16399;51.686;8.684;2023-05-23T07:08:55;15.38;;;9.88;;
29422;SDS011;16399;51.686;8.684;2023-05-23T07:11:57;18.00;;;11.22;;
29422;SDS011;16399;51.686;8.684;2023-05-23T07:15:00;18.75;;;11.83;;
29422;SDS011;16399;51.686;8.684;2023-05-23T07:18:02;19.30;;;11.88;;
29422;SDS011;16399;51.686;8.684;2023-05-23T07:21:04;19.10;;;11.00;;
29422;SDS011;16399;51.686;8.684;2023-05-23T07:24:07;17.45;;;10.95;;
29422;SDS011;16399;51.686;8.684;2023-05-23T07:27:09;20.05;;;11.38;;
29422;SDS011;16399;51.686;8.684;2023-05-23T07:30:11;19.85;;;11.50;;
29422;SDS011;16399;51.686;8.684;2023-05-23T07:33:15;19.77;;;10.65;;
29422;SDS011;16399;51.686;8.684;2023-05-23T07:36:18;18.00;;;10.32;;
29422;SDS011;16399;51.686;8.684;2023-05-23T07:39:21;20.00;;;10.98;;
29422;SDS011;16399;51.686;8.684;2023-05-23T07:42:24;29.10;;;11.18;;
29422;SDS011;16399;51.686;8.684;2023-05-23T07:45:26;19.12;;;10.50;;
29422;SDS011;16399;51.686;8.684;2023-05-23T07:48:28;22.13;;;10.90;;
29422;SDS011;16399;51.686;8.684;2023-05-23T07:51:31;18.25;;;11.50;;
29422;SDS011;16399;51.686;8.684;2023-05-23T07:54:33;16.02;;;9.33;;
29422;SDS011;16399;51.686;8.684;2023-05-23T07:57:36;18.60;;;10.43;;
29422;SDS011;16399;51.686;8.684;2023-05-23T08:00:38;17.02;;;9.93;;
29422;SDS011;16399;51.686;8.684;2023-05-23T08:03:41;16.85;;;9.05;;
29422;SDS011;16399;51.686;8.684;2023-05-23T08:06:43;18.48;;;9.10;;
29422;SDS011;16399;51.686;8.684;2023-05-23T08:09:47;14.03;;;7.43;;
29422;SDS011;16399;51.686;8.684;2023-05-23T08:12:50;16.82;;;5.95;;
29422;SDS011;16399;51.686;8.684;2023-05-23T08:15:52;11.00;;;5.25;;
29422;SDS011;16399;51.686;8.684;2023-05-23T08:18:55;14.25;;;5.22;;
29422;SDS011;16399;51.686;8.684;2023-05-23T08:21:57;12.60;;;5.30;;
29422;SDS011;16399;51.686;8.684;2023-05-23T08:24:59;7.20;;;4.10;;
29422;SDS011;16399;51.686;8.684;2023-05-23T08:28:02;6.92;;;4.00;;
29422;SDS011;16399;51.686;8.684;2023-05-23T08:31:05;6.87;;;3.62;;
29422;SDS011;16399;51.686;8.684;2023-05-23T08:34:07;9.35;;;3.87;;
29422;SDS011;16399;51.686;8.684;2023-05-23T08:37:09;7.05;;;3.47;;
29422;SDS011;16399;51.686;8.684;2023-05-23T08:40:21;4.83;;;2.92;;
29422;SDS011;16399;51.686;8.684;2023-05-23T08:43:22;6.30;;;2.95;;
29422;SDS011;16399;51.686;8.684;2023-05-23T08:46:24;5.17;;;2.75;;
29422;SDS011;16399;51.686;8.684;2023-05-23T08:49:27;5.22;;;2.80;;
29422;SDS011;16399;51.686;8.684;2023-05-23T08:52:29;7.90;;;2.30;;
29422;SDS011;16399;51.686;8.684;2023-05-23T08:55:33;4.37;;;2.10;;
29422;SDS011;16399;51.686;8.684;2023-05-23T08:58:38;4.22;;;1.80;;
29422;SDS011;16399;51.686;8.684;2023-05-23T09:04:45;5.70;;;2.42;;
29422;SDS011;16399;51.686;8.684;2023-05-23T09:07:48;5.20;;;2.35;;
29422;SDS011;16399;51.686;8.684;2023-05-23T09:10:52;4.00;;;2.25;;
29422;SDS011;16399;51.686;8.684;2023-05-23T09:13:55;7.72;;;2.60;;
29422;SDS011;16399;51.686;8.684;2023-05-23T09:17:01;4.35;;;2.15;;
29422;SDS011;16399;51.686;8.684;2023-05-23T09:20:07;5.22;;;2.67;;
29422;SDS011;16399;51.686;8.684;2023-05-23T09:23:14;11.73;;;3.15;;
29422;SDS011;16399;51.686;8.684;2023-05-23T09:26:16;7.80;;;2.77;;
29422;SDS011;16399;51.686;8.684;2023-05-23T09:29:18;7.35;;;2.85;;
29422;SDS011;16399;51.686;8.684;2023-05-23T09:32:21;8.70;;;3.37;;
29422;SDS011;16399;51.686;8.684;2023-05-23T09:35:23;6.95;;;2.83;;
29422;SDS011;16399;51.686;8.684;2023-05-23T09:38:27;6.17;;;2.97;;
29422;SDS011;16399;51.686;8.684;2023-05-23T09:41:31;9.53;;;3.50;;
29422;SDS011;16399;51.686;8.684;2023-05-23T09:44:40;7.92;;;3.17;;
29422;SDS011;16399;51.686;8.684;2023-05-23T09:47:48;7.97;;;3.17;;
29422;SDS011;16399;51.686;8.684;2023-05-23T09:50:51;4.62;;;2.45;;
29422;SDS011;16399;51.686;8.684;2023-05-23T09:53:53;6.25;;;3.02;;
29422;SDS011;16399;51.686;8.684;2023-05-23T09:56:56;6.25;;;2.83;;
29422;SDS011;16399;51.686;8.684;2023-05-23T10:03:08;7.78;;;3.27;;
29422;SDS011;16399;51.686;8.684;2023-05-23T10:09:36;6.37;;;2.90;;
29422;SDS011;16399;51.686;8.684;2023-05-23T10:12:43;9.33;;;3.25;;
29422;SDS011;16399;51.686;8.684;2023-05-23T10:15:48;7.85;;;2.58;;
29422;SDS011;16399;51.686;8.684;2023-05-23T10:18:58;10.95;;;3.10;;
29422;SDS011;16399;51.686;8.684;2023-05-23T10:22:06;6.65;;;3.12;;
29422;SDS011;16399;51.686;8.684;2023-05-23T10:25:10;6.87;;;2.60;;
29422;SDS011;16399;51.686;8.684;2023-05-23T10:28:14;6.90;;;3.30;;
29422;SDS011;16399;51.686;8.684;2023-05-23T10:31:17;8.88;;;3.30;;
29422;SDS011;16399;51.686;8.684;2023-05-23T10:41:17;7.10;;;3.80;;
29422;SDS011;16399;51.686;8.684;2023-05-23T10:44:30;11.10;;;4.80;;
29422;SDS011;16399;51.686;8.684;2023-05-23T10:47:32;13.60;;;5.37;;
29422;SDS011;16399;51.686;8.684;2023-05-23T10:50:36;13.55;;;5.40;;
29422;SDS011;16399;51.686;8.684;2023-05-23T10:53:44;13.20;;;5.30;;
29422;SDS011;16399;51.686;8.684;2023-05-23T10:56:44;11.08;;;6.10;;
29422;SDS011;16399;51.686;8.684;2023-05-23T10:59:52;10.98;;;5.37;;
29422;SDS011;16399;51.686;8.684;2023-05-23T11:02:58;14.10;;;5.80;;
29422;SDS011;16399;51.686;8.684;2023-05-23T11:06:00;14.10;;;5.67;;
29422;SDS011;16399;51.686;8.684;2023-05-23T11:09:16;15.97;;;5.43;;
29422;SDS011;16399;51.686;8.684;2023-05-23T11:12:37;18.23;;;5.53;;
29422;SDS011;16399;51.686;8.684;2023-05-23T11:15:25;17.42;;;5.83;;
29422;SDS011;16399;51.686;8.684;2023-05-23T11:18:27;13.98;;;5.42;;
29422;SDS011;16399;51.686;8.684;2023-05-23T11:21:30;14.60;;;6.08;;
29422;SDS011;16399;51.686;8.684;2023-05-23T11:24:52;16.52;;;7.35;;
29422;SDS011;16399;51.686;8.684;2023-05-23T11:27:55;18.48;;;6.78;;
29422;SDS011;16399;51.686;8.684;2023-05-23T11:30:57;12.78;;;6.33;;
29422;SDS011;16399;51.686;8.684;2023-05-23T11:34:00;15.78;;;6.75;;
29422;SDS011;16399;51.686;8.684;2023-05-23T11:37:02;13.65;;;6.55;;
29422;SDS011;16399;51.686;8.684;2023-05-23T11:40:24;10.45;;;5.28;;
29422;SDS011;16399;51.686;8.684;2023-05-23T11:43:33;12.37;;;5.70;;
29422;SDS011;16399;51.686;8.684;2023-05-23T11:46:35;11.75;;;5.33;;
29422;SDS011;16399;51.686;8.684;2023-05-23T11:49:39;12.07;;;5.15;;
29422;SDS011;16399;51.686;8.684;2023-05-23T11:52:43;16.40;;;5.97;;
29422;SDS011;16399;51.686;8.684;2023-05-23T11:55:52;18.40;;;4.83;;
29422;SDS011;16399;51.686;8.684;2023-05-23T11:58:56;15.28;;;4.65;;
29422;SDS011;16399;51.686;8.684;2023-05-23T12:01:58;11.57;;;5.20;;
29422;SDS011;16399;51.686;8.684;2023-05-23T12:05:05;9.58;;;4.30;;
29422;SDS011;16399;51.686;8.684;2023-05-23T12:08:11;16.67;;;4.80;;
29422;SDS011;16399;51.686;8.684;2023-05-23T12:11:14;8.88;;;4.30;;
29422;SDS011;16399;51.686;8.684;2023-05-23T12:14:16;16.52;;;6.33;;
29422;SDS011;16399;51.686;8.684;2023-05-23T12:17:19;15.15;;;4.70;;
29422;SDS011;16399;51.686;8.684;2023-05-23T12:20:21;15.20;;;5.12;;
29422;SDS011;16399;51.686;8.684;2023-05-23T12:23:26;12.65;;;4.50;;
29422;SDS011;16399;51.686;8.684;2023-05-23T12:26:29;13.93;;;4.65;;
29422;SDS011;16399;51.686;8.684;2023-05-23T12:29:32;10.98;;;4.22;;
29422;SDS011;16399;51.686;8.684;2023-05-23T12:32:40;12.23;;;4.67;;
29422;SDS011;16399;51.686;8.684;2023-05-23T12:35:43;10.15;;;4.65;;
29422;SDS011;16399;51.686;8.684;2023-05-23T12:38:45;11.97;;;4.15;;
29422;SDS011;16399;51.686;8.684;2023-05-23T12:41:47;10.13;;;3.92;;
29422;SDS011;16399;51.686;8.684;2023-05-23T12:44:50;12.03;;;3.87;;
29422;SDS011;16399;51.686;8.684;2023-05-23T12:47:54;15.90;;;4.22;;
29422;SDS011;16399;51.686;8.684;2023-05-23T12:50:56;12.88;;;4.28;;
29422;SDS011;16399;51.686;8.684;2023-05-23T12:53:58;16.80;;;4.55;;
29422;SDS011;16399;51.686;8.684;2023-05-23T12:57:01;13.50;;;4.22;;
29422;SDS011;16399;51.686;8.684;2023-05-23T13:00:04;13.38;;;4.25;;
29422;SDS011;16399;51.686;8.684;2023-05-23T13:03:07;16.52;;;4.30;;
29422;SDS011;16399;51.686;8.684;2023-05-23T13:06:10;10.60;;;3.15;;
29422;SDS011;16399;51.686;8.684;2023-05-23T13:09:12;14.75;;;3.72;;
29422;SDS011;16399;51.686;8.684;2023-05-23T13:12:14;15.38;;;4.12;;
29422;SDS011;16399;51.686;8.684;2023-05-23T13:15:17;21.75;;;3.98;;
29422;SDS011;16399;51.686;8.684;2023-05-23T13:18:19;13.08;;;3.75;;
29422;SDS011;16399;51.686;8.684;2023-05-23T13:21:21;9.48;;;3.12;;
29422;SDS011;16399;51.686;8.684;2023-05-23T13:24:24;14.38;;;3.17;;
29422;SDS011;16399;51.686;8.684;2023-05-23T13:27:26;12.33;;;3.67;;
29422;SDS011;16399;51.686;8.684;2023-05-23T13:30:29;15.18;;;4.47;;
29422;SDS011;16399;51.686;8.684;2023-05-23T13:33:32;15.95;;;3.67;;
29422;SDS011;16399;51.686;8.684;2023-05-23T13:36:34;12.40;;;3.47;;
29422;SDS011;16399;51.686;8.684;2023-05-23T13:39:37;13.18;;;4.15;;
29422;SDS011;16399;51.686;8.684;2023-05-23T13:42:39;9.60;;;3.55;;
29422;SDS011;16399;51.686;8.684;2023-05-23T13:45:41;16.42;;;3.95;;
29422;SDS011;16399;51.686;8.684;2023-05-23T13:48:44;13.13;;;4.25;;
29422;SDS011;16399;51.686;8.684;2023-05-23T13:51:46;15.93;;;4.35;;
29422;SDS011;16399;51.686;8.684;2023-05-23T13:54:49;19.40;;;3.95;;
29422;SDS011;16399;51.686;8.684;2023-05-23T13:57:51;11.88;;;3.95;;
29422;SDS011;16399;51.686;8.684;2023-05-23T14:00:54;13.22;;;4.05;;
29422;SDS011;16399;51.686;8.684;2023-05-23T14:03:56;13.93;;;3.90;;
29422;SDS011;16399;51.686;8.684;2023-05-23T14:06:58;13.40;;;4.25;;
29422;SDS011;16399;51.686;8.684;2023-05-23T14:10:01;10.80;;;3.85;;
29422;SDS011;16399;51.686;8.684;2023-05-23T14:13:07;17.17;;;3.92;;
29422;SDS011;16399;51.686;8.684;2023-05-23T14:16:10;16.50;;;3.95;;
29422;SDS011;16399;51.686;8.684;2023-05-23T14:19:12;17.50;;;4.42;;
29422;SDS011;16399;51.686;8.684;2023-05-23T14:22:15;14.40;;;3.70;;
29422;SDS011;16399;51.686;8.684;2023-05-23T14:25:17;14.55;;;3.62;;
29422;SDS011;16399;51.686;8.684;2023-05-23T14:28:19;12.35;;;3.70;;
29422;SDS011;16399;51.686;8.684;2023-05-23T14:31:21;15.63;;;4.60;;
29422;SDS011;16399;51.686;8.684;2023-05-23T14:34:24;15.08;;;4.47;;
29422;SDS011;16399;51.686;8.684;2023-05-23T14:37:26;15.25;;;4.47;;
29422;SDS011;16399;51.686;8.684;2023-05-23T14:40:29;16.55;;;3.85;;
29422;SDS011;16399;51.686;8.684;2023-05-23T14:43:31;13.43;;;3.52;;
29422;SDS011;16399;51.686;8.684;2023-05-23T14:46:33;15.30;;;4.22;;
29422;SDS011;16399;51.686;8.684;2023-05-23T14:49:35;12.50;;;4.47;;
29422;SDS011;16399;51.686;8.684;2023-05-23T14:52:38;14.43;;;3.30;;
29422;SDS011;16399;51.686;8.684;2023-05-23T14:55:40;15.30;;;4.22;;
29422;SDS011;16399;51.686;8.684;2023-05-23T14:58:42;15.93;;;3.35;;
29422;SDS011;16399;51.686;8.684;2023-05-23T15:01:45;11.83;;;3.95;;
29422;SDS011;16399;51.686;8.684;2023-05-23T15:04:47;12.73;;;3.42;;
29422;SDS011;16399;51.686;8.684;2023-05-23T15:07:49;13.68;;;3.25;;
29422;SDS011;16399;51.686;8.684;2023-05-23T15:10:52;13.43;;;3.40;;
29422;SDS011;16399;51.686;8.684;2023-05-23T15:13:54;11.08;;;3.00;;
29422;SDS011;16399;51.686;8.684;2023-05-23T15:16:56;9.78;;;3.20;;
29422;SDS011;16399;51.686;8.684;2023-05-23T15:20:00;13.80;;;3.80;;
29422;SDS011;16399;51.686;8.684;2023-05-23T15:23:03;13.55;;;3.67;;
29422;SDS011;16399;51.686;8.684;2023-05-23T15:26:06;13.25;;;3.72;;
29422;SDS011;16399;51.686;8.684;2023-05-23T15:29:08;10.98;;;3.20;;
29422;SDS011;16399;51.686;8.684;2023-05-23T15:32:11;12.90;;;3.72;;
29422;SDS011;16399;51.686;8.684;2023-05-23T15:35:14;11.43;;;3.45;;
29422;SDS011;16399;51.686;8.684;2023-05-23T15:38:16;13.58;;;3.58;;
29422;SDS011;16399;51.686;8.684;2023-05-23T15:41:19;13.88;;;3.20;;
29422;SDS011;16399;51.686;8.684;2023-05-23T15:44:21;10.43;;;3.05;;
29422;SDS011;16399;51.686;8.684;2023-05-23T15:47:23;13.72;;;2.92;;
29422;SDS011;16399;51.686;8.684;2023-05-23T15:50:26;17.00;;;3.52;;
29422;SDS011;16399;51.686;8.684;2023-05-23T15:53:29;12.43;;;3.22;;
29422;SDS011;16399;51.686;8.684;2023-05-23T15:56:32;12.18;;;3.85;;
29422;SDS011;16399;51.686;8.684;2023-05-23T15:59:34;14.38;;;3.45;;
29422;SDS011;16399;51.686;8.684;2023-05-23T16:02:37;13.90;;;3.45;;
29422;SDS011;16399;51.686;8.684;2023-05-23T16:05:39;14.83;;;3.75;;
29422;SDS011;16399;51.686;8.684;2023-05-23T16:08:42;14.43;;;3.35;;
29422;SDS011;16399;51.686;8.684;2023-05-23T16:11:44;11.38;;;3.42;;
29422;SDS011;16399;51.686;8.684;2023-05-23T16:14:46;11.50;;;3.12;;
29422;SDS011;16399;51.686;8.684;2023-05-23T16:17:49;17.25;;;4.33;;
29422;SDS011;16399;51.686;8.684;2023-05-23T16:20:52;10.53;;;2.75;;
29422;SDS011;16399;51.686;8.684;2023-05-23T16:23:54;9.60;;;2.92;;
29422;SDS011;16399;51.686;8.684;2023-05-23T16:26:57;14.45;;;3.50;;
29422;SDS011;16399;51.686;8.684;2023-05-23T16:30:00;10.88;;;3.25;;
29422;SDS011;16399;51.686;8.684;2023-05-23T16:33:04;9.73;;;3.27;;
29422;SDS011;16399;51.686;8.684;2023-05-23T16:36:06;17.85;;;3.77;;
29422;SDS011;16399;51.686;8.684;2023-05-23T16:39:08;10.58;;;2.87;;
29422;SDS011;16399;51.686;8.684;2023-05-23T16:42:11;10.78;;;3.33;;
29422;SDS011;16399;51.686;8.684;2023-05-23T16:45:13;12.82;;;3.67;;
29422;SDS011;16399;51.686;8.684;2023-05-23T16:48:16;10.75;;;2.85;;
29422;SDS011;16399;51.686;8.684;2023-05-23T16:51:20;13.90;;;3.05;;
29422;SDS011;16399;51.686;8.684;2023-05-23T16:54:22;14.10;;;3.80;;
29422;SDS011;16399;51.686;8.684;2023-05-23T16:57:25;13.45;;;3.30;;
29422;SDS011;16399;51.686;8.684;2023-05-23T17:00:27;6.70;;;2.37;;
29422;SDS011;16399;51.686;8.684;2023-05-23T17:03:29;10.13;;;3.35;;
29422;SDS011;16399;51.686;8.684;2023-05-23T17:06:32;11.80;;;3.10;;
29422;SDS011;16399;51.686;8.684;2023-05-23T17:09:34;13.70;;;2.92;;
29422;SDS011;16399;51.686;8.684;2023-05-23T17:12:36;12.88;;;2.83;;
29422;SDS011;16399;51.686;8.684;2023-05-23T17:15:39;12.03;;;3.10;;
29422;SDS011;16399;51.686;8.684;2023-05-23T17:18:41;12.73;;;2.67;;
29422;SDS011;16399;51.686;8.684;2023-05-23T17:21:43;12.00;;;2.25;;
29422;SDS011;16399;51.686;8.684;2023-05-23T17:24:46;18.02;;;3.60;;
29422;SDS011;16399;51.686;8.684;2023-05-23T17:27:48;15.72;;;3.22;;
29422;SDS011;16399;51.686;8.684;2023-05-23T17:30:50;9.98;;;3.40;;
29422;SDS011;16399;51.686;8.684;2023-05-23T17:33:53;11.53;;;2.83;;
29422;SDS011;16399;51.686;8.684;2023-05-23T17:36:55;12.50;;;2.87;;
29422;SDS011;16399;51.686;8.684;2023-05-23T17:39:57;10.82;;;2.25;;
29422;SDS011;16399;51.686;8.684;2023-05-23T17:42:59;13.78;;;3.67;;
29422;SDS011;16399;51.686;8.684;2023-05-23T17:46:02;10.95;;;2.60;;
29422;SDS011;16399;51.686;8.684;2023-05-23T17:49:04;13.98;;;3.15;;
29422;SDS011;16399;51.686;8.684;2023-05-23T17:52:06;12.20;;;2.58;;
29422;SDS011;16399;51.686;8.684;2023-05-23T17:55:09;14.78;;;2.75;;
29422;SDS011;16399;51.686;8.684;2023-05-23T17:58:11;11.03;;;2.25;;
29422;SDS011;16399;51.686;8.684;2023-05-23T18:01:14;13.78;;;2.83;;
29422;SDS011;16399;51.686;8.684;2023-05-23T18:04:16;11.00;;;2.52;;
29422;SDS011;16399;51.686;8.684;2023-05-23T18:07:19;9.35;;;2.60;;
29422;SDS011;16399;51.686;8.684;2023-05-23T18:10:21;13.28;;;2.50;;
29422;SDS011;16399;51.686;8.684;2023-05-23T18:13:24;11.83;;;3.25;;
29422;SDS011;16399;51.686;8.684;2023-05-23T18:16:26;12.58;;;3.33;;
29422;SDS011;16399;51.686;8.684;2023-05-23T18:19:28;11.10;;;2.92;;
29422;SDS011;16399;51.686;8.684;2023-05-23T18:22:30;8.88;;;2.67;;